createdAt,value
2016-08-25T00:00:47.034Z,16.66
2016-08-25T00:01:47.039Z,16.65
2016-08-25T00:02:47.041Z,16.63
2016-08-25T00:03:47.128Z,16.67
2016-08-25T00:04:47.067Z,16.67
2016-08-25T00:05:47.592Z,16.7
2016-08-25T00:06:47.050Z,16.66
2016-08-25T00:07:46.955Z,16.66
2016-08-25T00:08:46.942Z,16.59
2016-08-25T00:09:47.050Z,16.65
2016-08-25T00:10:46.997Z,16.49
2016-08-25T00:11:47.013Z,16.45
2016-08-25T00:12:47.017Z,16.47
2016-08-25T00:13:47.029Z,16.49
2016-08-25T00:14:47.034Z,16.52
2016-08-25T00:15:47.045Z,16.4
2016-08-25T00:16:47.011Z,16.42
2016-08-25T00:17:46.923Z,16.39
2016-08-25T00:18:47.016Z,16.37
2016-08-25T00:19:46.924Z,16.36
2016-08-25T00:20:46.929Z,16.37
2016-08-25T00:21:46.941Z,16.32
2016-08-25T00:22:46.955Z,16.3
2016-08-25T00:23:47.014Z,16.26
2016-08-25T00:24:46.994Z,16.3
2016-08-25T00:25:47.006Z,16.26
2016-08-25T00:26:46.876Z,16.29
2016-08-25T00:27:46.885Z,16.3
2016-08-25T00:28:47.502Z,16.33
2016-08-25T00:29:47.037Z,16.26
2016-08-25T00:30:47.010Z,16.3
2016-08-25T00:31:46.907Z,16.27
2016-08-25T00:32:46.922Z,16.26
2016-08-25T00:33:46.916Z,16.27
2016-08-25T00:34:46.932Z,16.27
2016-08-25T00:35:46.977Z,16.32
2016-08-25T00:36:46.847Z,16.34
2016-08-25T00:37:46.952Z,16.27
2016-08-25T00:38:46.860Z,16.27
2016-08-25T00:39:46.866Z,16.22
2016-08-25T00:40:46.875Z,16.27
2016-08-25T00:41:46.885Z,16.27
2016-08-25T00:42:47.460Z,16.22
2016-08-25T00:43:46.894Z,16.16
2016-08-25T00:44:46.853Z,16.25
2016-08-25T00:45:46.912Z,16.27
2016-08-25T00:46:46.916Z,16.29
2016-08-25T00:47:46.927Z,16.27
2016-08-25T00:48:46.833Z,16.25
2016-08-25T00:49:46.834Z,16.26
2016-08-25T00:50:46.842Z,16.25
2016-08-25T00:51:46.859Z,16.18
2016-08-25T00:52:46.874Z,16.25
2016-08-25T00:53:46.963Z,16.16
2016-08-25T00:54:46.873Z,16.32
2016-08-25T00:55:46.882Z,16.22
2016-08-25T00:56:46.973Z,16.18
2016-08-25T00:57:46.903Z,16.14
2016-08-25T00:58:46.997Z,16.07
2016-08-25T00:59:46.914Z,16.11
2016-08-25T01:00:46.814Z,16
2016-08-25T01:01:46.826Z,16.07
2016-08-25T01:02:46.830Z,16.07
2016-08-25T01:03:46.938Z,16.07
2016-08-25T01:04:46.943Z,16.07
2016-08-25T01:05:46.958Z,16.04
2016-08-25T01:06:46.858Z,16.08
2016-08-25T01:07:47.425Z,16
2016-08-25T01:08:46.873Z,16.08
2016-08-25T01:09:46.837Z,16.04
2016-08-25T01:10:46.844Z,16.04
2016-08-25T01:11:46.742Z,16.06
2016-08-25T01:12:46.720Z,15.99
2016-08-25T01:13:46.830Z,15.93
2016-08-25T01:14:47.374Z,15.93
2016-08-25T01:15:46.822Z,15.92
2016-08-25T01:16:46.853Z,15.88
2016-08-25T01:17:46.950Z,15.84
2016-08-25T01:18:46.855Z,15.91
2016-08-25T01:19:46.695Z,15.93
2016-08-25T01:20:46.817Z,15.81
2016-08-25T01:21:46.807Z,15.89
2016-08-25T01:22:46.679Z,15.84
2016-08-25T01:23:46.668Z,15.89
2016-08-25T01:24:46.678Z,15.89
2016-08-25T01:25:46.794Z,15.96
2016-08-25T01:26:46.812Z,15.89
2016-08-25T01:27:46.837Z,15.86
2016-08-25T01:28:46.784Z,15.93
2016-08-25T01:29:46.819Z,15.8
2016-08-25T01:30:46.804Z,15.74
2016-08-25T01:31:46.848Z,15.83
2016-08-25T01:32:46.657Z,15.83
2016-08-25T01:33:46.859Z,15.83
2016-08-25T01:34:46.641Z,15.73
2016-08-25T01:35:46.645Z,15.74
2016-08-25T01:36:46.641Z,15.74
2016-08-25T01:37:46.894Z,15.74
2016-08-25T01:38:46.623Z,15.71
2016-08-25T01:39:47.043Z,15.77
2016-08-25T01:40:46.766Z,15.75
2016-08-25T01:41:46.655Z,15.63
2016-08-25T01:42:46.636Z,15.7
2016-08-25T01:43:46.785Z,15.6
2016-08-25T01:44:46.632Z,15.63
2016-08-25T01:45:46.629Z,15.67
2016-08-25T01:46:46.616Z,15.7
2016-08-25T01:47:46.612Z,15.59
2016-08-25T01:48:46.613Z,15.71
2016-08-25T01:49:46.613Z,15.73
2016-08-25T01:50:46.611Z,15.71
2016-08-25T01:51:46.622Z,15.7
2016-08-25T01:52:46.599Z,15.71
2016-08-25T01:53:46.599Z,15.68
2016-08-25T01:54:46.587Z,15.7
2016-08-25T01:55:47.190Z,15.74
2016-08-25T01:56:46.575Z,15.68
2016-08-25T01:57:46.595Z,15.75
2016-08-25T01:58:46.575Z,15.65
2016-08-25T01:59:46.574Z,15.75
2016-08-25T02:00:46.466Z,15.7
2016-08-25T02:01:46.462Z,15.74
2016-08-25T02:02:46.576Z,15.71
2016-08-25T02:03:46.571Z,15.63
2016-08-25T02:04:46.571Z,15.6
2016-08-25T02:05:46.440Z,15.73
2016-08-25T02:06:46.444Z,15.65
2016-08-25T02:07:46.446Z,15.63
2016-08-25T02:08:46.461Z,15.65
2016-08-25T02:09:46.446Z,15.68
2016-08-25T02:10:46.432Z,15.65
2016-08-25T02:11:46.425Z,15.63
2016-08-25T02:12:46.422Z,15.65
2016-08-25T02:13:46.430Z,15.65
2016-08-25T02:14:46.431Z,15.62
2016-08-25T02:15:46.416Z,15.59
2016-08-25T02:16:46.411Z,15.65
2016-08-25T02:17:46.410Z,15.58
2016-08-25T02:18:46.407Z,15.59
2016-08-25T02:19:47.115Z,15.62
2016-08-25T02:20:46.398Z,15.62
2016-08-25T02:21:46.392Z,15.63
2016-08-25T02:22:46.395Z,15.63
2016-08-25T02:23:46.416Z,15.55
2016-08-25T02:24:46.375Z,15.55
2016-08-25T02:25:46.391Z,15.6
2016-08-25T02:26:46.374Z,15.59
2016-08-25T02:27:46.385Z,15.6
2016-08-25T02:28:46.380Z,15.63
2016-08-25T02:29:46.404Z,15.62
2016-08-25T02:30:46.374Z,15.6
2016-08-25T02:31:46.367Z,15.62
2016-08-25T02:32:46.363Z,15.65
2016-08-25T02:33:46.356Z,15.58
2016-08-25T02:34:46.336Z,15.62
2016-08-25T02:35:46.372Z,15.59
2016-08-25T02:36:46.351Z,15.59
2016-08-25T02:37:46.337Z,15.55
2016-08-25T02:38:46.327Z,15.44
2016-08-25T02:39:46.346Z,15.43
2016-08-25T02:40:46.333Z,15.43
2016-08-25T02:41:46.324Z,15.43
2016-08-25T02:42:46.304Z,15.44
2016-08-25T02:43:46.334Z,15.34
2016-08-25T02:44:46.300Z,15.31
2016-08-25T02:45:47.024Z,15.34
2016-08-25T02:46:46.289Z,15.34
2016-08-25T02:47:46.296Z,15.27
2016-08-25T02:48:46.286Z,15.3
2016-08-25T02:49:46.278Z,15.31
2016-08-25T02:50:46.307Z,15.31
2016-08-25T02:51:46.997Z,15.27
2016-08-25T02:52:46.282Z,15.37
2016-08-25T02:53:46.277Z,15.34
2016-08-25T02:54:46.274Z,15.27
2016-08-25T02:55:46.278Z,15.33
2016-08-25T02:56:46.270Z,15.26
2016-08-25T02:57:46.271Z,15.37
2016-08-25T02:58:46.261Z,15.34
2016-08-25T02:59:46.261Z,15.34
2016-08-25T03:00:46.237Z,15.35
2016-08-25T03:01:46.238Z,15.34
2016-08-25T03:02:46.270Z,15.27
2016-08-25T03:03:46.256Z,15.27
2016-08-25T03:04:46.237Z,15.25
2016-08-25T03:05:46.239Z,15.2
2016-08-25T03:06:46.233Z,15.22
2016-08-25T03:07:46.221Z,15.22
2016-08-25T03:08:46.213Z,15.26
2016-08-25T03:09:46.259Z,15.23
2016-08-25T03:10:46.202Z,15.13
2016-08-25T03:11:46.961Z,15.12
2016-08-25T03:12:46.184Z,15.07
2016-08-25T03:13:46.207Z,15.13
2016-08-25T03:14:46.211Z,15.16
2016-08-25T03:15:46.975Z,15.13
2016-08-25T03:16:46.178Z,15.13
2016-08-25T03:17:46.184Z,15.16
2016-08-25T03:18:46.192Z,15.05
2016-08-25T03:19:46.201Z,15.05
2016-08-25T03:20:46.913Z,15.02
2016-08-25T03:21:46.270Z,15.04
2016-08-25T03:22:46.172Z,15.02
2016-08-25T03:23:46.150Z,14.93
2016-08-25T03:24:46.956Z,14.9
2016-08-25T03:25:46.173Z,15
2016-08-25T03:26:46.150Z,15.02
2016-08-25T03:27:46.141Z,14.94
2016-08-25T03:28:46.156Z,14.94
2016-08-25T03:29:46.142Z,14.87
2016-08-25T03:30:46.144Z,14.94
2016-08-25T03:31:46.116Z,14.8
2016-08-25T03:32:46.110Z,14.86
2016-08-25T03:33:46.122Z,14.87
2016-08-25T03:34:46.132Z,14.87
2016-08-25T03:35:46.113Z,14.82
2016-08-25T03:36:46.125Z,14.8
2016-08-25T03:37:46.101Z,14.86
2016-08-25T03:38:46.105Z,14.87
2016-08-25T03:39:46.081Z,14.86
2016-08-25T03:40:46.103Z,14.85
2016-08-25T03:41:46.080Z,14.83
2016-08-25T03:42:46.068Z,14.83
2016-08-25T03:43:46.063Z,14.83
2016-08-25T03:44:46.069Z,14.83
2016-08-25T03:45:46.892Z,14.8
2016-08-25T03:46:46.061Z,14.75
2016-08-25T03:47:46.052Z,14.77
2016-08-25T03:48:46.057Z,14.83
2016-08-25T03:49:46.039Z,14.7
2016-08-25T03:50:46.192Z,14.74
2016-08-25T03:51:46.046Z,14.74
2016-08-25T03:52:46.036Z,14.61
2016-08-25T03:53:46.056Z,14.69
2016-08-25T03:54:46.040Z,14.74
2016-08-25T03:55:46.051Z,14.66
2016-08-25T03:56:46.806Z,14.66
2016-08-25T03:57:46.013Z,14.66
2016-08-25T03:58:46.002Z,14.66
2016-08-25T03:59:46.108Z,14.66
2016-08-25T04:00:45.988Z,14.6
2016-08-25T04:01:45.993Z,14.7
2016-08-25T04:02:45.989Z,14.69
2016-08-25T04:03:46.006Z,14.69
2016-08-25T04:04:45.973Z,14.85
2016-08-25T04:05:45.996Z,14.71
2016-08-25T04:06:45.985Z,14.82
2016-08-25T04:07:45.967Z,14.86
2016-08-25T04:08:45.978Z,14.9
2016-08-25T04:09:45.975Z,14.85
2016-08-25T04:10:45.975Z,14.83
2016-08-25T04:11:45.957Z,14.87
2016-08-25T04:12:45.969Z,14.9
2016-08-25T04:13:45.963Z,14.83
2016-08-25T04:14:45.937Z,14.93
2016-08-25T04:15:46.857Z,14.86
2016-08-25T04:16:45.941Z,14.83
2016-08-25T04:17:45.929Z,14.86
2016-08-25T04:18:45.914Z,14.82
2016-08-25T04:19:45.917Z,14.83
2016-08-25T04:20:45.918Z,14.82
2016-08-25T04:21:45.900Z,14.8
2016-08-25T04:22:45.935Z,14.79
2016-08-25T04:23:46.804Z,14.77
2016-08-25T04:24:45.901Z,14.71
2016-08-25T04:25:45.894Z,14.71
2016-08-25T04:26:45.886Z,14.69
2016-08-25T04:27:45.871Z,14.74
2016-08-25T04:28:45.913Z,14.69
2016-08-25T04:29:45.863Z,14.75
2016-08-25T04:30:45.940Z,14.71
2016-08-25T04:31:45.857Z,14.7
2016-08-25T04:32:45.871Z,14.71
2016-08-25T04:33:45.847Z,14.71
2016-08-25T04:34:45.857Z,14.71
2016-08-25T04:35:45.860Z,14.71
2016-08-25T04:36:45.840Z,14.71
2016-08-25T04:37:45.850Z,14.69
2016-08-25T04:38:45.846Z,14.71
2016-08-25T04:39:45.847Z,14.86
2016-08-25T04:40:45.835Z,14.8
2016-08-25T04:41:45.828Z,14.85
2016-08-25T04:42:45.823Z,14.83
2016-08-25T04:43:45.815Z,14.74
2016-08-25T04:44:45.821Z,14.71
2016-08-25T04:45:45.799Z,14.7
2016-08-25T04:46:45.792Z,14.74
2016-08-25T04:47:45.782Z,14.82
2016-08-25T04:48:45.796Z,14.71
2016-08-25T04:49:45.801Z,14.69
2016-08-25T04:50:45.772Z,14.7
2016-08-25T04:51:45.770Z,14.86
2016-08-25T04:52:45.775Z,14.79
2016-08-25T04:53:45.770Z,14.82
2016-08-25T04:54:45.777Z,14.93
2016-08-25T04:55:45.813Z,14.98
2016-08-25T04:56:45.760Z,15.02
2016-08-25T04:57:45.747Z,15.05
2016-08-25T04:58:45.742Z,15.05
2016-08-25T04:59:45.746Z,15.2
2016-08-25T05:00:45.756Z,15.23
2016-08-25T05:01:45.725Z,15.23
2016-08-25T05:02:45.728Z,15.31
2016-08-25T05:03:45.737Z,15.4
2016-08-25T05:04:45.729Z,15.31
2016-08-25T05:05:45.709Z,15.3
2016-08-25T05:06:45.700Z,15.19
2016-08-25T05:07:45.711Z,15.31
2016-08-25T05:08:45.711Z,15.33
2016-08-25T05:09:45.697Z,15.33
2016-08-25T05:10:45.682Z,15.31
2016-08-25T05:11:45.677Z,15.27
2016-08-25T05:12:45.691Z,15.4
2016-08-25T05:13:45.681Z,15.31
2016-08-25T05:14:45.693Z,15.38
2016-08-25T05:15:45.674Z,15.33
2016-08-25T05:16:45.665Z,15.33
2016-08-25T05:17:45.659Z,15.37
2016-08-25T05:18:45.670Z,15.3
2016-08-25T05:19:45.671Z,15.44
2016-08-25T05:20:45.644Z,15.3
2016-08-25T05:21:45.644Z,15.35
2016-08-25T05:22:45.629Z,15.38
2016-08-25T05:23:45.658Z,15.35
2016-08-25T05:24:45.654Z,15.4
2016-08-25T05:25:45.616Z,15.35
2016-08-25T05:26:45.618Z,15.35
2016-08-25T05:27:45.635Z,15.37
2016-08-25T05:28:45.616Z,15.37
2016-08-25T05:29:45.618Z,15.45
2016-08-25T05:30:45.621Z,15.43
2016-08-25T05:31:45.618Z,15.45
2016-08-25T05:32:45.603Z,15.56
2016-08-25T05:33:45.596Z,15.7
2016-08-25T05:34:45.595Z,15.68
2016-08-25T05:35:45.590Z,15.78
2016-08-25T05:36:45.585Z,15.95
2016-08-25T05:37:45.571Z,15.88
2016-08-25T05:38:45.572Z,15.98
2016-08-25T05:39:46.400Z,15.98
2016-08-25T05:40:45.578Z,15.98
2016-08-25T05:41:45.563Z,16.06
2016-08-25T05:42:45.554Z,16.1
2016-08-25T05:43:45.554Z,16.13
2016-08-25T05:44:45.612Z,16.18
2016-08-25T05:45:45.556Z,16.13
2016-08-25T05:46:45.557Z,16.14
2016-08-25T05:47:45.557Z,16.13
2016-08-25T05:48:45.556Z,16.08
2016-08-25T05:49:45.531Z,16.16
2016-08-25T05:50:45.552Z,16.18
2016-08-25T05:51:45.549Z,16.14
2016-08-25T05:52:46.271Z,16.1
2016-08-25T05:53:45.534Z,16.1
2016-08-25T05:54:45.513Z,16.17
2016-08-25T05:55:45.512Z,16.11
2016-08-25T05:56:45.526Z,16.21
2016-08-25T05:57:45.510Z,16.21
2016-08-25T05:58:45.507Z,16.21
2016-08-25T05:59:45.715Z,16.32
2016-08-25T06:00:45.481Z,16.26
2016-08-25T06:01:45.486Z,16.4
2016-08-25T06:02:45.488Z,16.49
2016-08-25T06:03:45.485Z,16.48
2016-08-25T06:04:45.492Z,16.51
2016-08-25T06:05:45.511Z,16.59
2016-08-25T06:06:45.469Z,16.59
2016-08-25T06:07:45.475Z,16.69
2016-08-25T06:08:45.462Z,16.65
2016-08-25T06:09:45.468Z,16.73
2016-08-25T06:10:45.469Z,16.81
2016-08-25T06:11:45.473Z,16.82
2016-08-25T06:12:45.660Z,16.82
2016-08-25T06:13:45.446Z,16.91
2016-08-25T06:14:45.450Z,16.94
2016-08-25T06:15:45.450Z,17
2016-08-25T06:16:45.443Z,17.15
2016-08-25T06:17:45.462Z,17.27
2016-08-25T06:18:45.469Z,17.32
2016-08-25T06:19:45.447Z,17.49
2016-08-25T06:20:45.431Z,17.52
2016-08-25T06:21:45.642Z,17.49
2016-08-25T06:22:45.424Z,17.58
2016-08-25T06:23:45.418Z,17.65
2016-08-25T06:24:45.440Z,17.68
2016-08-25T06:25:46.112Z,17.79
2016-08-25T06:26:45.421Z,17.81
2016-08-25T06:27:45.413Z,17.81
2016-08-25T06:28:45.416Z,17.9
2016-08-25T06:29:46.110Z,18.06
2016-08-25T06:30:45.418Z,18.02
2016-08-25T06:31:45.407Z,18.14
2016-08-25T06:32:45.417Z,18.14
2016-08-25T06:33:45.413Z,18.19
2016-08-25T06:34:45.391Z,18.1
2016-08-25T06:35:45.385Z,18.19
2016-08-25T06:36:45.392Z,18.26
2016-08-25T06:37:45.417Z,18.21
2016-08-25T06:38:45.399Z,18.19
2016-08-25T06:39:45.385Z,18.2
2016-08-25T06:40:45.373Z,18.14
2016-08-25T06:41:46.082Z,18.14
2016-08-25T06:42:45.362Z,18.17
2016-08-25T06:43:45.367Z,18.11
2016-08-25T06:44:45.791Z,18.17
2016-08-25T06:45:45.384Z,18.16
2016-08-25T06:46:45.373Z,18.19
2016-08-25T06:47:45.355Z,18.29
2016-08-25T06:48:45.387Z,18.32
2016-08-25T06:49:45.360Z,18.44
2016-08-25T06:50:45.349Z,18.54
2016-08-25T06:51:46.074Z,18.61
2016-08-25T06:52:45.363Z,18.71
2016-08-25T06:53:45.348Z,18.78
2016-08-25T06:54:45.342Z,19
2016-08-25T06:55:45.347Z,19.06
2016-08-25T06:56:45.346Z,19.19
2016-08-25T06:57:45.344Z,19.38
2016-08-25T06:58:45.349Z,19.55
2016-08-25T06:59:45.356Z,19.68
2016-08-25T07:00:45.332Z,19.87
2016-08-25T07:01:45.355Z,20.05
2016-08-25T07:02:45.360Z,20.18
2016-08-25T07:03:45.374Z,20.3
2016-08-25T07:04:45.331Z,20.56
2016-08-25T07:05:46.054Z,20.72
2016-08-25T07:06:45.337Z,20.9
2016-08-25T07:07:45.336Z,21.16
2016-08-25T07:08:45.340Z,21.22
2016-08-25T07:09:45.349Z,21.41
2016-08-25T07:10:45.340Z,21.51
2016-08-25T07:11:45.339Z,21.73
2016-08-25T07:12:46.048Z,21.9
2016-08-25T07:13:45.345Z,22.04
2016-08-25T07:14:45.377Z,22.24
2016-08-25T07:15:45.336Z,22.42
2016-08-25T07:16:46.757Z,22.75
2016-08-25T07:17:45.375Z,22.99
2016-08-25T07:18:45.358Z,23.22
2016-08-25T07:19:45.348Z,23.26
2016-08-25T07:20:45.338Z,23.41
2016-08-25T07:21:45.365Z,23.66
2016-08-25T07:22:45.324Z,23.85
2016-08-25T07:23:45.330Z,24
2016-08-25T07:24:45.366Z,24.11
2016-08-25T07:25:45.336Z,24.12
2016-08-25T07:26:45.350Z,24.26
2016-08-25T07:27:45.337Z,24.32
2016-08-25T07:28:45.387Z,24.27
2016-08-25T07:29:45.335Z,24.34
2016-08-25T07:30:45.335Z,24.42
2016-08-25T07:31:45.367Z,24.29
2016-08-25T07:32:45.336Z,24.42
2016-08-25T07:33:45.342Z,24.44
2016-08-25T07:34:45.355Z,24.45
2016-08-25T07:35:45.338Z,24.39
2016-08-25T07:36:45.347Z,24.27
2016-08-25T07:37:45.349Z,24.21
2016-08-25T07:38:45.359Z,24.12
2016-08-25T07:39:45.357Z,24.07
2016-08-25T07:40:45.403Z,24
2016-08-25T07:41:45.354Z,23.9
2016-08-25T07:42:45.353Z,23.78
2016-08-25T07:43:45.362Z,23.78
2016-08-25T07:44:45.365Z,23.72
2016-08-25T07:45:45.365Z,23.63
2016-08-25T07:46:45.360Z,23.66
2016-08-25T07:47:45.345Z,23.63
2016-08-25T07:48:45.359Z,23.66
2016-08-25T07:49:45.360Z,23.59
2016-08-25T07:50:46.065Z,23.62
2016-08-25T07:51:45.351Z,23.55
2016-08-25T07:52:45.364Z,23.53
2016-08-25T07:53:45.368Z,23.57
2016-08-25T07:54:45.364Z,23.56
2016-08-25T07:55:45.371Z,23.62
2016-08-25T07:56:45.365Z,23.57
2016-08-25T07:57:45.362Z,23.5
2016-08-25T07:58:45.367Z,23.59
2016-08-25T07:59:45.371Z,23.57
2016-08-25T08:00:45.431Z,23.66
2016-08-25T08:01:46.086Z,23.62
2016-08-25T08:02:45.370Z,23.7
2016-08-25T08:03:45.389Z,23.7
2016-08-25T08:04:45.371Z,23.78
2016-08-25T08:05:45.369Z,23.77
2016-08-25T08:06:45.385Z,23.81
2016-08-25T08:07:45.433Z,23.78
2016-08-25T08:08:45.388Z,23.92
2016-08-25T08:09:45.373Z,23.89
2016-08-25T08:10:45.368Z,23.84
2016-08-25T08:11:45.388Z,23.93
2016-08-25T08:12:45.571Z,23.93
2016-08-25T08:13:45.399Z,24
2016-08-25T08:14:45.391Z,23.99
2016-08-25T08:15:45.384Z,23.99
2016-08-25T08:16:45.408Z,24.02
2016-08-25T08:17:45.400Z,24.11
2016-08-25T08:18:45.396Z,24.08
2016-08-25T08:19:45.404Z,24.14
2016-08-25T08:20:45.400Z,24.18
2016-08-25T08:21:46.105Z,24.24
2016-08-25T08:22:45.391Z,24.19
2016-08-25T08:23:45.420Z,24.29
2016-08-25T08:24:45.406Z,24.29
2016-08-25T08:25:45.396Z,24.46
2016-08-25T08:26:45.410Z,24.39
2016-08-25T08:27:45.410Z,24.44
2016-08-25T08:28:45.431Z,24.42
2016-08-25T08:29:45.414Z,24.49
2016-08-25T08:30:45.406Z,24.54
2016-08-25T08:31:45.415Z,24.49
2016-08-25T08:32:45.431Z,24.56
2016-08-25T08:33:45.434Z,24.61
2016-08-25T08:34:45.421Z,24.71
2016-08-25T08:35:45.434Z,24.74
2016-08-25T08:36:45.437Z,24.66
2016-08-25T08:37:45.428Z,24.67
2016-08-25T08:38:45.448Z,24.69
2016-08-25T08:39:45.430Z,24.74
2016-08-25T08:40:45.433Z,24.8
2016-08-25T08:41:45.441Z,24.85
2016-08-25T08:42:45.452Z,24.7
2016-08-25T08:43:45.457Z,24.7
2016-08-25T08:44:45.432Z,24.77
2016-08-25T08:45:45.446Z,24.78
2016-08-25T08:46:45.433Z,24.69
2016-08-25T08:47:45.470Z,24.74
2016-08-25T08:48:45.442Z,24.74
2016-08-25T08:49:45.455Z,24.71
2016-08-25T08:50:45.448Z,24.7
2016-08-25T08:51:45.448Z,24.67
2016-08-25T08:52:45.449Z,24.78
2016-08-25T08:53:46.255Z,24.85
2016-08-25T08:54:45.456Z,24.77
2016-08-25T08:55:45.474Z,24.86
2016-08-25T08:56:45.456Z,24.85
2016-08-25T08:57:45.464Z,24.96
2016-08-25T08:58:45.474Z,25.11
2016-08-25T08:59:45.478Z,24.97
2016-08-25T09:00:45.471Z,25.07
2016-08-25T09:01:45.479Z,24.96
2016-08-25T09:02:45.463Z,24.83
2016-08-25T09:03:45.481Z,24.9
2016-08-25T09:04:45.485Z,24.97
2016-08-25T09:05:45.486Z,25.02
2016-08-25T09:06:45.486Z,25.12
2016-08-25T09:07:45.477Z,25.11
2016-08-25T09:08:45.493Z,25.29
2016-08-25T09:09:45.488Z,25.24
2016-08-25T09:10:45.483Z,25.26
2016-08-25T09:11:45.517Z,25.3
2016-08-25T09:12:46.426Z,25.39
2016-08-25T09:13:45.501Z,25.38
2016-08-25T09:14:45.496Z,25.41
2016-08-25T09:15:45.520Z,25.41
2016-08-25T09:16:45.536Z,25.38
2016-08-25T09:17:45.519Z,25.32
2016-08-25T09:18:45.530Z,25.23
2016-08-25T09:19:45.519Z,25.26
2016-08-25T09:20:45.514Z,25.34
2016-08-25T09:21:45.522Z,25.37
2016-08-25T09:22:45.534Z,25.45
2016-08-25T09:23:45.519Z,25.33
2016-08-25T09:24:45.512Z,25.52
2016-08-25T09:25:45.517Z,25.49
2016-08-25T09:26:45.530Z,25.48
2016-08-25T09:27:45.546Z,25.42
2016-08-25T09:28:45.523Z,25.49
2016-08-25T09:29:45.531Z,25.49
2016-08-25T09:30:45.556Z,25.6
2016-08-25T09:31:45.577Z,25.54
2016-08-25T09:32:45.550Z,25.52
2016-08-25T09:33:45.538Z,25.54
2016-08-25T09:34:45.541Z,25.49
2016-08-25T09:35:45.545Z,25.49
2016-08-25T09:36:45.537Z,25.51
2016-08-25T09:37:45.572Z,25.34
2016-08-25T09:38:45.574Z,25.37
2016-08-25T09:39:45.572Z,25.49
2016-08-25T09:40:45.574Z,25.48
2016-08-25T09:41:45.560Z,25.51
2016-08-25T09:42:45.587Z,25.6
2016-08-25T09:43:45.586Z,25.64
2016-08-25T09:44:45.586Z,25.66
2016-08-25T09:45:45.583Z,25.69
2016-08-25T09:46:45.566Z,25.67
2016-08-25T09:47:45.583Z,25.59
2016-08-25T09:48:45.601Z,25.67
2016-08-25T09:49:45.577Z,25.7
2016-08-25T09:50:45.578Z,25.67
2016-08-25T09:51:45.612Z,25.66
2016-08-25T09:52:45.600Z,25.71
2016-08-25T09:53:45.603Z,25.69
2016-08-25T09:54:45.615Z,25.66
2016-08-25T09:55:45.618Z,25.7
2016-08-25T09:56:45.619Z,25.7
2016-08-25T09:57:46.496Z,25.82
2016-08-25T09:58:45.606Z,25.89
2016-08-25T09:59:45.623Z,25.96
2016-08-25T10:00:45.625Z,25.94
2016-08-25T10:01:45.636Z,25.97
2016-08-25T10:02:45.633Z,25.89
2016-08-25T10:03:45.630Z,25.91
2016-08-25T10:04:45.624Z,25.85
2016-08-25T10:05:45.633Z,25.85
2016-08-25T10:06:45.644Z,25.91
2016-08-25T10:07:45.662Z,25.81
2016-08-25T10:08:45.640Z,25.84
2016-08-25T10:09:45.693Z,25.85
2016-08-25T10:10:45.663Z,25.82
2016-08-25T10:11:45.668Z,25.75
2016-08-25T10:12:46.496Z,25.81
2016-08-25T10:13:46.505Z,25.81
2016-08-25T10:14:45.672Z,25.86
2016-08-25T10:15:45.700Z,25.89
2016-08-25T10:16:45.658Z,25.91
2016-08-25T10:17:45.672Z,25.96
2016-08-25T10:18:45.681Z,26
2016-08-25T10:19:45.670Z,25.99
2016-08-25T10:20:45.673Z,25.96
2016-08-25T10:21:45.712Z,25.99
2016-08-25T10:22:45.678Z,26.07
2016-08-25T10:23:45.690Z,26.03
2016-08-25T10:24:45.674Z,26.03
2016-08-25T10:25:45.710Z,26.06
2016-08-25T10:26:45.676Z,26.06
2016-08-25T10:27:45.696Z,26.07
2016-08-25T10:28:45.690Z,25.96
2016-08-25T10:29:45.699Z,26.03
2016-08-25T10:30:45.757Z,26.04
2016-08-25T10:31:45.706Z,26.06
2016-08-25T10:32:45.738Z,26.06
2016-08-25T10:33:45.737Z,26.01
2016-08-25T10:34:45.736Z,26.12
2016-08-25T10:35:45.723Z,26.22
2016-08-25T10:36:45.711Z,26.22
2016-08-25T10:37:45.759Z,26.12
2016-08-25T10:38:45.732Z,26.16
2016-08-25T10:39:45.718Z,26.01
2016-08-25T10:40:45.731Z,25.94
2016-08-25T10:41:45.731Z,25.86
2016-08-25T10:42:45.749Z,26
2016-08-25T10:43:45.756Z,26.04
2016-08-25T10:44:45.750Z,26.04
2016-08-25T10:45:45.749Z,26.11
2016-08-25T10:46:45.746Z,26.23
2016-08-25T10:47:45.769Z,26.31
2016-08-25T10:48:45.776Z,26.37
2016-08-25T10:49:45.764Z,26.3
2016-08-25T10:50:45.746Z,26.38
2016-08-25T10:51:45.778Z,26.35
2016-08-25T10:52:46.542Z,26.42
2016-08-25T10:53:45.764Z,26.39
2016-08-25T10:54:45.802Z,26.34
2016-08-25T10:55:45.789Z,26.32
2016-08-25T10:56:45.788Z,26.3
2016-08-25T10:57:45.794Z,26.27
2016-08-25T10:58:45.772Z,26.31
2016-08-25T10:59:45.780Z,26.34
2016-08-25T11:00:45.803Z,26.16
2016-08-25T11:01:45.791Z,26.2
2016-08-25T11:02:45.811Z,26.19
2016-08-25T11:03:46.118Z,26.32
2016-08-25T11:04:45.810Z,26.35
2016-08-25T11:05:45.793Z,26.31
2016-08-25T11:06:45.791Z,26.31
2016-08-25T11:07:45.797Z,26.31
2016-08-25T11:08:45.817Z,26.26
2016-08-25T11:09:45.828Z,26.31
2016-08-25T11:10:45.839Z,26.27
2016-08-25T11:11:45.827Z,26.32
2016-08-25T11:12:45.840Z,26.23
2016-08-25T11:13:45.830Z,26.34
2016-08-25T11:14:45.822Z,26.39
2016-08-25T11:15:45.850Z,26.49
2016-08-25T11:16:45.834Z,26.47
2016-08-25T11:17:45.875Z,26.57
2016-08-25T11:18:45.851Z,26.63
2016-08-25T11:19:45.849Z,26.52
2016-08-25T11:20:45.852Z,26.6
2016-08-25T11:21:45.876Z,26.68
2016-08-25T11:22:45.857Z,26.64
2016-08-25T11:23:45.862Z,26.6
2016-08-25T11:24:45.887Z,26.67
2016-08-25T11:25:45.869Z,26.67
2016-08-25T11:26:45.898Z,26.6
2016-08-25T11:27:45.905Z,26.6
2016-08-25T11:28:45.898Z,26.68
2016-08-25T11:29:45.883Z,26.68
2016-08-25T11:30:45.887Z,26.68
2016-08-25T11:31:45.900Z,26.68
2016-08-25T11:32:45.955Z,26.59
2016-08-25T11:33:45.895Z,26.64
2016-08-25T11:34:45.896Z,26.67
2016-08-25T11:35:45.904Z,26.52
2016-08-25T11:36:45.899Z,26.6
2016-08-25T11:37:45.933Z,26.6
2016-08-25T11:38:45.910Z,26.68
2016-08-25T11:39:45.924Z,26.67
2016-08-25T11:40:46.044Z,26.68
2016-08-25T11:41:45.931Z,26.64
2016-08-25T11:42:45.938Z,26.53
2016-08-25T11:43:45.925Z,26.49
2016-08-25T11:45:46.049Z,26.5
2016-08-25T11:46:46.048Z,26.47
2016-08-25T11:47:46.050Z,26.53
2016-08-25T11:48:46.058Z,26.69
2016-08-25T11:49:46.075Z,26.59
2016-08-25T11:50:46.086Z,26.61
2016-08-25T11:51:46.897Z,26.68
2016-08-25T11:52:46.054Z,26.63
2016-08-25T11:53:46.053Z,26.6
2016-08-25T11:54:46.078Z,26.68
2016-08-25T11:55:46.085Z,26.68
2016-08-25T11:56:46.073Z,26.64
2016-08-25T11:57:46.204Z,26.68
2016-08-25T11:58:46.069Z,26.6
2016-08-25T11:59:46.087Z,26.54
2016-08-25T12:00:46.088Z,26.5
2016-08-25T12:01:46.066Z,26.49
2016-08-25T12:02:46.081Z,26.44
2016-08-25T12:03:46.345Z,26.53
2016-08-25T12:04:46.347Z,26.52
2016-08-25T12:05:46.355Z,26.45
2016-08-25T12:06:46.082Z,26.47
2016-08-25T12:07:46.088Z,26.49
2016-08-25T12:08:46.089Z,26.47
2016-08-25T12:09:46.220Z,26.44
2016-08-25T12:10:46.108Z,26.49
2016-08-25T12:12:00.959Z,26.47
2016-08-25T12:12:46.423Z,26.49
2016-08-25T12:13:46.746Z,26.52
2016-08-25T12:14:46.326Z,26.5
2016-08-25T12:15:46.326Z,26.49
2016-08-25T12:16:46.334Z,26.44
2016-08-25T12:17:46.249Z,26.38
2016-08-25T12:18:46.255Z,26.34
2016-08-25T12:19:46.254Z,26.3
2016-08-25T12:20:46.369Z,26.35
2016-08-25T12:21:46.276Z,26.38
2016-08-25T12:22:46.277Z,26.37
2016-08-25T12:23:46.287Z,26.37
2016-08-25T12:24:46.297Z,26.31
2016-08-25T12:25:46.301Z,26.37
2016-08-25T12:26:46.212Z,26.38
2016-08-25T12:27:46.219Z,26.47
2016-08-25T12:28:46.225Z,26.39
2016-08-25T12:29:46.329Z,26.42
2016-08-25T12:30:46.230Z,26.35
2016-08-25T12:31:46.237Z,26.39
2016-08-25T12:32:46.360Z,26.44
2016-08-25T12:33:46.259Z,26.44
2016-08-25T12:34:46.357Z,26.47
2016-08-25T12:35:46.276Z,26.42
2016-08-25T12:36:46.273Z,26.47
2016-08-25T12:37:46.389Z,26.49
2016-08-25T12:38:46.291Z,26.44
2016-08-25T12:39:46.194Z,26.38
2016-08-25T12:40:46.343Z,26.37
2016-08-25T12:41:46.357Z,26.44
2016-08-25T12:42:46.320Z,26.38
2016-08-25T12:43:46.337Z,26.42
2016-08-25T12:44:46.388Z,26.41
2016-08-25T12:45:46.238Z,26.47
2016-08-25T12:46:46.389Z,26.47
2016-08-25T12:47:46.259Z,26.6
2016-08-25T12:48:46.270Z,26.64
2016-08-25T12:49:46.265Z,26.67
2016-08-25T12:50:46.282Z,26.6
2016-08-25T12:51:46.325Z,26.67
2016-08-25T12:52:46.339Z,26.63
2016-08-25T12:53:46.350Z,26.67
2016-08-25T12:54:46.353Z,26.69
2016-08-25T12:55:46.356Z,26.75
2016-08-25T12:56:46.359Z,26.76
2016-08-25T12:57:46.438Z,26.82